createdAt,value
2022-12-01T00:01:06.704Z,44.90
2022-12-01T00:03:33.690Z,37.00
2022-12-01T00:06:04.614Z,36.88
2022-12-01T00:08:32.282Z,34.33
2022-12-01T00:11:09.835Z,35.63
2022-12-01T00:13:36.614Z,40.38
2022-12-01T00:16:14.738Z,35.55
2022-12-01T00:18:41.693Z,40.75
2022-12-01T00:21:15.321Z,40.50
2022-12-01T00:23:49.922Z,36.15
2022-12-01T00:26:18.242Z,38.60
2022-12-01T00:28:48.824Z,36.50
2022-12-01T00:31:15.407Z,39.60
2022-12-01T00:33:41.800Z,33.23
2022-12-01T00:36:08.519Z,34.75
2022-12-01T00:38:35.312Z,37.47
2022-12-01T00:41:02.301Z,37.42
2022-12-01T00:43:28.671Z,35.97
2022-12-01T00:45:56.467Z,41.70
2022-12-01T00:48:23.320Z,39.58
2022-12-01T00:50:53.907Z,41.17
2022-12-01T00:53:21.021Z,35.13
2022-12-01T00:55:47.440Z,38.17
2022-12-01T00:58:13.854Z,34.37
2022-12-01T01:00:40.318Z,36.30
2022-12-01T01:03:07.168Z,42.05
2022-12-01T01:05:41.570Z,37.92
2022-12-01T01:08:13.515Z,35.85
2022-12-01T01:10:41.720Z,32.93
2022-12-01T01:13:08.807Z,33.28
2022-12-01T01:15:35.568Z,34.13
2022-12-01T01:18:02.104Z,40.20
2022-12-01T01:20:29.031Z,31.63
2022-12-01T01:22:55.436Z,39.80
2022-12-01T01:25:22.801Z,34.30
2022-12-01T01:27:49.544Z,35.38
2022-12-01T01:30:16.274Z,41.17
2022-12-01T01:32:42.725Z,32.80
2022-12-01T01:35:09.395Z,37.20
2022-12-01T01:37:35.855Z,37.30
2022-12-01T01:40:02.249Z,38.00
2022-12-01T01:42:28.686Z,36.58
2022-12-01T01:44:57.425Z,37.60
2022-12-01T01:47:35.898Z,38.40
2022-12-01T01:50:09.902Z,34.22
2022-12-01T01:52:41.556Z,33.05
2022-12-01T01:55:08.600Z,36.22
2022-12-01T01:57:36.062Z,38.35
2022-12-01T02:00:08.053Z,32.67
2022-12-01T02:02:40.830Z,33.58
2022-12-01T02:05:11.028Z,38.72
2022-12-01T02:07:41.899Z,44.05
2022-12-01T02:10:11.889Z,36.40
2022-12-01T02:13:11.145Z,36.90
2022-12-01T02:15:58.405Z,34.25
2022-12-01T02:18:34.061Z,41.25
2022-12-01T02:21:23.885Z,41.67
2022-12-01T02:24:08.412Z,40.70
2022-12-01T02:26:45.157Z,40.10
2022-12-01T02:29:20.283Z,43.60
2022-12-01T02:32:00.166Z,42.72
2022-12-01T02:34:39.122Z,41.40
2022-12-01T02:37:20.170Z,36.03
2022-12-01T02:40:16.167Z,37.77
2022-12-01T02:42:56.461Z,40.42
2022-12-01T02:45:33.154Z,40.97
2022-12-01T02:48:02.643Z,36.15
2022-12-01T02:50:33.339Z,42.42
2022-12-01T02:53:02.920Z,43.40
2022-12-01T02:55:29.380Z,41.17
2022-12-01T02:57:55.769Z,40.55
2022-12-01T03:00:22.234Z,47.83
2022-12-01T03:02:58.435Z,46.53
2022-12-01T03:06:14.516Z,39.30
2022-12-01T03:09:04.091Z,39.45
2022-12-01T03:11:46.073Z,38.03
2022-12-01T03:14:33.374Z,43.45
2022-12-01T03:17:07.667Z,43.72
2022-12-01T03:19:41.996Z,42.73
2022-12-01T03:22:12.564Z,38.33
2022-12-01T03:24:43.989Z,43.55
2022-12-01T03:27:13.655Z,42.00
2022-12-01T03:29:44.139Z,42.25
2022-12-01T03:32:20.547Z,37.77
2022-12-01T03:34:54.788Z,40.65
2022-12-01T03:37:28.384Z,41.50
2022-12-01T03:40:00.144Z,43.33
2022-12-01T03:42:39.060Z,36.17
2022-12-01T03:45:09.318Z,40.27
2022-12-01T03:47:37.665Z,41.20
2022-12-01T03:50:06.193Z,33.67
2022-12-01T03:53:19.214Z,39.03
2022-12-01T03:55:52.017Z,42.53
2022-12-01T03:58:27.286Z,37.23
2022-12-01T04:00:57.511Z,44.55
2022-12-01T04:03:25.630Z,35.67
2022-12-01T04:05:52.508Z,36.25
2022-12-01T04:08:18.980Z,36.78
2022-12-01T04:10:45.543Z,43.60
2022-12-01T04:13:16.809Z,40.35
2022-12-01T04:15:43.648Z,41.05
2022-12-01T04:18:10.082Z,41.88
2022-12-01T04:20:36.454Z,39.65
2022-12-01T04:23:02.836Z,39.10
2022-12-01T04:25:29.215Z,44.67
2022-12-01T04:27:55.599Z,43.70
2022-12-01T04:30:21.975Z,38.88
2022-12-01T04:32:48.390Z,39.78
2022-12-01T04:35:14.763Z,40.03
2022-12-01T04:37:41.216Z,39.03
2022-12-01T04:40:08.791Z,35.53
2022-12-01T04:42:35.339Z,42.78
2022-12-01T04:45:01.814Z,44.15
2022-12-01T04:47:28.183Z,40.57
2022-12-01T04:49:54.607Z,43.33
2022-12-01T04:52:21.000Z,42.55
2022-12-01T04:54:47.348Z,43.50
2022-12-01T04:57:13.756Z,39.60
2022-12-01T04:59:40.242Z,38.70
2022-12-01T05:02:06.753Z,39.80
2022-12-01T05:04:34.279Z,44.53
2022-12-01T05:07:00.726Z,40.97
2022-12-01T05:09:27.077Z,37.42
2022-12-01T05:11:53.531Z,42.87
2022-12-01T05:14:19.902Z,38.42
2022-12-01T05:16:46.381Z,46.92
2022-12-01T05:19:31.268Z,48.92
2022-12-01T05:21:57.690Z,40.03
2022-12-01T05:24:24.050Z,37.43
2022-12-01T05:26:50.409Z,43.88
2022-12-01T05:29:17.308Z,42.55
2022-12-01T05:31:45.347Z,42.97
2022-12-01T05:34:11.851Z,51.78
2022-12-01T05:36:38.239Z,36.27
2022-12-01T05:39:04.935Z,44.05
2022-12-01T05:41:31.743Z,44.05
2022-12-01T05:43:58.215Z,40.78
2022-12-01T05:46:24.675Z,43.38
2022-12-01T05:48:51.155Z,42.30
2022-12-01T05:51:17.923Z,45.55
2022-12-01T05:53:45.336Z,45.13
2022-12-01T05:56:11.998Z,45.97
2022-12-01T05:58:38.401Z,41.95
2022-12-01T06:01:05.018Z,43.80
2022-12-01T06:03:31.454Z,38.53
2022-12-01T06:05:57.853Z,42.55
2022-12-01T06:08:24.344Z,40.00
2022-12-01T06:10:51.467Z,40.25
2022-12-01T06:13:17.856Z,41.40
2022-12-01T06:15:44.391Z,44.75
2022-12-01T06:18:10.997Z,38.72
2022-12-01T06:20:37.487Z,45.40
2022-12-01T06:23:04.069Z,48.65
2022-12-01T06:25:30.691Z,37.43
2022-12-01T06:27:58.572Z,49.60
2022-12-01T06:30:25.740Z,42.75
2022-12-01T06:32:52.177Z,43.25
2022-12-01T06:35:18.767Z,48.08
2022-12-01T06:37:45.188Z,43.40
2022-12-01T06:40:12.261Z,35.90
2022-12-01T06:42:38.739Z,50.58
2022-12-01T06:45:05.848Z,47.95
2022-12-01T06:47:32.315Z,45.15
2022-12-01T06:49:58.751Z,42.00
2022-12-01T06:52:25.152Z,45.88
2022-12-01T06:54:51.531Z,44.63
2022-12-01T06:57:18.132Z,48.33
2022-12-01T06:59:44.894Z,47.35
2022-12-01T07:02:14.034Z,49.20
2022-12-01T07:04:40.418Z,54.72
2022-12-01T07:07:07.090Z,59.05
2022-12-01T07:09:34.108Z,43.13
2022-12-01T07:12:00.503Z,50.30
2022-12-01T07:14:27.287Z,56.23
2022-12-01T07:16:54.218Z,47.58
2022-12-01T07:19:20.741Z,46.33
2022-12-01T07:21:47.163Z,43.13
2022-12-01T07:24:13.774Z,51.90
2022-12-01T07:26:41.276Z,46.10
2022-12-01T07:29:09.165Z,54.13
2022-12-01T07:31:36.894Z,61.58
2022-12-01T07:34:03.942Z,55.70
2022-12-01T07:36:30.633Z,49.88
2022-12-01T07:38:57.372Z,60.17
2022-12-01T07:41:24.407Z,58.13
2022-12-01T07:43:51.370Z,55.97
2022-12-01T07:46:23.579Z,55.25
2022-12-01T07:48:51.662Z,57.08
2022-12-01T07:51:18.838Z,57.77
2022-12-01T07:53:46.632Z,44.58
2022-12-01T07:56:13.508Z,64.35
2022-12-01T07:58:40.338Z,61.47
2022-12-01T08:01:19.133Z,58.33
2022-12-01T08:03:45.698Z,51.93
2022-12-01T08:06:12.302Z,57.88
2022-12-01T08:08:40.064Z,59.13
2022-12-01T08:11:18.633Z,61.95
2022-12-01T08:13:45.266Z,60.28
2022-12-01T08:16:14.638Z,54.70
2022-12-01T08:18:42.453Z,49.63
2022-12-01T08:21:11.809Z,50.97
2022-12-01T08:23:38.906Z,51.95
2022-12-01T08:26:07.853Z,57.72
2022-12-01T08:28:37.170Z,50.27
2022-12-01T08:31:09.203Z,61.88
2022-12-01T08:33:35.776Z,58.53
2022-12-01T08:36:03.255Z,46.55
2022-12-01T08:38:29.707Z,45.35
2022-12-01T08:41:00.235Z,54.93
2022-12-01T08:43:56.017Z,50.97
2022-12-01T08:46:14.112Z,58.13
2022-12-01T08:48:41.018Z,52.22
2022-12-01T08:51:13.283Z,49.08
2022-12-01T08:53:45.506Z,52.97
2022-12-01T08:56:24.545Z,50.55
2022-12-01T08:58:51.741Z,53.72
2022-12-01T09:01:20.241Z,56.28
2022-12-01T09:03:46.755Z,49.40
2022-12-01T09:06:21.629Z,53.17
2022-12-01T09:08:48.884Z,50.85
2022-12-01T09:11:18.698Z,59.58
2022-12-01T09:13:51.334Z,46.08
2022-12-01T09:16:19.565Z,49.13
2022-12-01T09:18:47.378Z,53.87
2022-12-01T09:21:20.494Z,50.25
2022-12-01T09:23:47.592Z,57.97
2022-12-01T09:26:18.436Z,59.35
2022-12-01T09:28:50.632Z,52.20
2022-12-01T09:31:18.417Z,59.73
2022-12-01T09:33:45.072Z,49.22
2022-12-01T09:36:11.531Z,51.03
2022-12-01T09:38:38.924Z,57.13
2022-12-01T09:41:20.745Z,50.30
2022-12-01T09:44:13.980Z,62.40
2022-12-01T09:46:49.056Z,57.03
2022-12-01T09:49:23.005Z,50.53
2022-12-01T09:51:54.383Z,63.70
2022-12-01T09:54:21.401Z,56.03
2022-12-01T09:56:52.459Z,54.53
2022-12-01T09:59:24.972Z,56.33
2022-12-01T10:01:56.154Z,58.60
2022-12-01T10:04:22.607Z,51.20
2022-12-01T10:06:56.683Z,56.25
2022-12-01T10:09:31.306Z,45.27
2022-12-01T10:12:18.483Z,55.30
2022-12-01T10:14:46.860Z,61.40
2022-12-01T10:17:54.452Z,61.95
2022-12-01T10:20:30.368Z,60.33
2022-12-01T10:23:02.838Z,53.33
2022-12-01T10:25:38.984Z,51.95
2022-12-01T10:28:54.005Z,59.40
2022-12-01T10:31:35.989Z,55.38
2022-12-01T10:34:08.093Z,55.35
2022-12-01T10:36:34.787Z,60.60
2022-12-01T10:39:04.429Z,53.85
2022-12-01T10:41:34.264Z,56.30
2022-12-01T10:44:05.450Z,53.88
2022-12-01T10:46:47.588Z,54.75
2022-12-01T10:49:16.692Z,50.70
2022-12-01T10:52:26.111Z,54.97
2022-12-01T10:54:52.544Z,49.40
2022-12-01T10:57:19.177Z,50.63
2022-12-01T10:59:48.620Z,54.40
2022-12-01T11:02:21.140Z,54.57
2022-12-01T11:05:02.710Z,52.83
2022-12-01T11:07:33.425Z,56.40
2022-12-01T11:10:14.722Z,53.70
2022-12-01T11:12:43.426Z,50.92
2022-12-01T11:15:20.790Z,55.60
2022-12-01T11:17:47.569Z,49.17
2022-12-01T11:20:38.709Z,48.85
2022-12-01T11:23:15.264Z,53.28
2022-12-01T11:25:41.805Z,43.40
2022-12-01T11:28:20.746Z,56.27
2022-12-01T11:30:49.276Z,52.10
2022-12-01T11:33:18.180Z,49.00
2022-12-01T11:35:49.080Z,55.30
2022-12-01T11:41:27.031Z,49.37
2022-12-01T11:44:01.603Z,46.45
2022-12-01T11:46:32.888Z,55.53
2022-12-01T11:49:00.781Z,47.20
2022-12-01T11:51:37.353Z,47.38
2022-12-01T11:54:19.145Z,48.17
2022-12-01T11:56:52.773Z,51.85
2022-12-01T11:59:30.999Z,54.80
2022-12-01T12:02:15.824Z,53.05
2022-12-01T12:05:16.240Z,52.45
2022-12-01T12:07:54.532Z,42.57
2022-12-01T12:10:55.880Z,49.58
2022-12-01T12:14:10.767Z,48.97
2022-12-01T12:17:03.947Z,49.13
2022-12-01T12:23:08.001Z,45.93
2022-12-01T12:25:34.362Z,48.53
2022-12-01T12:28:30.871Z,45.17
2022-12-01T12:31:28.178Z,47.40
2022-12-01T12:34:14.217Z,42.42
2022-12-01T12:37:16.013Z,42.63
2022-12-01T12:39:45.483Z,42.65
2022-12-01T12:42:32.135Z,42.42
2022-12-01T12:45:01.546Z,41.63
2022-12-01T12:47:48.735Z,44.58
2022-12-01T12:50:44.850Z,40.57
2022-12-01T12:53:28.093Z,44.95
2022-12-01T12:55:59.931Z,43.00
2022-12-01T12:58:33.697Z,43.70
2022-12-01T13:01:15.815Z,39.28
2022-12-01T13:03:51.471Z,42.53
2022-12-01T13:06:32.217Z,39.72
2022-12-01T13:09:07.918Z,41.25
2022-12-01T13:11:46.041Z,46.40
2022-12-01T13:14:35.688Z,37.42
2022-12-01T13:17:25.420Z,38.77
2022-12-01T13:19:52.048Z,43.58
2022-12-01T13:22:24.131Z,40.50
2022-12-01T13:24:50.687Z,46.72
2022-12-01T13:27:21.130Z,39.13
2022-12-01T13:29:50.676Z,45.60
2022-12-01T13:32:47.093Z,40.47
2022-12-01T13:35:33.527Z,43.38
2022-12-01T13:38:33.931Z,44.72
2022-12-01T13:41:32.291Z,35.58
2022-12-01T13:44:00.344Z,36.87
2022-12-01T13:46:37.203Z,37.78
2022-12-01T13:49:04.722Z,38.20
2022-12-01T13:52:09.534Z,38.20
2022-12-01T13:54:37.500Z,39.80
2022-12-01T13:57:11.041Z,39.47
2022-12-01T13:59:38.613Z,41.42
2022-12-01T14:02:21.721Z,37.15
2022-12-01T14:04:48.728Z,39.33
2022-12-01T14:07:34.635Z,40.58
2022-12-01T14:10:37.122Z,37.10
2022-12-01T14:13:05.920Z,38.03
2022-12-01T14:15:37.179Z,37.10
2022-12-01T14:18:23.987Z,38.97
2022-12-01T14:20:50.558Z,44.55
2022-12-01T14:23:16.880Z,37.97
2022-12-01T14:25:58.769Z,37.28
2022-12-01T14:28:56.285Z,42.22
2022-12-01T14:31:24.644Z,41.30
2022-12-01T14:34:18.853Z,38.75
2022-12-01T14:37:02.745Z,36.70
2022-12-01T14:39:33.703Z,40.22
2022-12-01T14:42:11.287Z,37.92
2022-12-01T14:44:48.935Z,37.63
2022-12-01T14:47:21.110Z,36.10
2022-12-01T14:49:55.485Z,35.07
2022-12-01T14:52:27.666Z,39.55
2022-12-01T14:55:04.975Z,40.15
2022-12-01T14:57:39.070Z,34.97
2022-12-01T15:00:15.785Z,34.50
2022-12-01T15:03:07.520Z,33.47
2022-12-01T15:05:40.317Z,35.83
2022-12-01T15:11:23.584Z,35.72
2022-12-01T15:13:57.514Z,43.53
2022-12-01T15:16:26.693Z,36.87
2022-12-01T15:18:53.446Z,36.90
2022-12-01T15:21:24.000Z,36.42
2022-12-01T15:24:00.708Z,32.80
2022-12-01T15:26:47.846Z,36.65
2022-12-01T15:29:19.308Z,35.27
2022-12-01T15:31:49.249Z,32.08
2022-12-01T15:34:31.121Z,35.03
2022-12-01T15:36:58.868Z,37.78
2022-12-01T15:39:45.086Z,33.47
2022-12-01T15:42:23.411Z,37.87
2022-12-01T15:45:01.076Z,33.35
2022-12-01T15:47:46.467Z,34.15
2022-12-01T15:50:42.742Z,37.17
2022-12-01T15:53:29.242Z,37.13
2022-12-01T15:55:59.260Z,44.67
2022-12-01T15:58:30.217Z,40.20
2022-12-01T16:01:07.309Z,45.03
2022-12-01T16:03:51.940Z,43.47
2022-12-01T16:06:19.862Z,49.03
2022-12-01T16:09:02.002Z,42.00
2022-12-01T16:11:29.075Z,44.38
2022-12-01T16:13:55.424Z,43.50
2022-12-01T16:16:30.743Z,44.08
2022-12-01T16:19:00.762Z,41.40
2022-12-01T16:21:28.777Z,43.40
2022-12-01T16:24:00.510Z,36.28
2022-12-01T16:26:27.817Z,42.92
2022-12-01T16:28:55.649Z,39.13
2022-12-01T16:31:22.311Z,40.88
2022-12-01T16:33:48.792Z,37.13
2022-12-01T16:36:15.885Z,37.05
2022-12-01T16:38:42.684Z,38.30
2022-12-01T16:41:17.734Z,37.85
2022-12-01T16:44:05.398Z,36.97
2022-12-01T16:46:31.045Z,39.43
2022-12-01T16:48:57.616Z,53.50
2022-12-01T16:51:30.018Z,52.05
2022-12-01T16:54:09.738Z,45.35
2022-12-01T16:56:36.099Z,40.58
2022-12-01T16:59:02.647Z,45.27
2022-12-01T17:01:29.391Z,39.38
2022-12-01T17:03:56.001Z,33.65
2022-12-01T17:06:22.646Z,38.38
2022-12-01T17:08:49.218Z,34.13
2022-12-01T17:11:15.738Z,35.27
2022-12-01T17:13:42.196Z,33.25
2022-12-01T17:16:13.932Z,35.25
2022-12-01T17:18:43.202Z,37.22
2022-12-01T17:21:10.936Z,33.35
2022-12-01T17:23:38.502Z,34.73
2022-12-01T17:26:10.999Z,35.53
2022-12-01T17:28:38.280Z,33.17
2022-12-01T17:31:05.626Z,34.53
2022-12-01T17:33:32.568Z,37.88
2022-12-01T17:36:04.625Z,38.27
2022-12-01T17:38:33.897Z,34.05
2022-12-01T17:41:06.952Z,38.85
2022-12-01T17:43:34.764Z,29.83
2022-12-01T17:46:01.821Z,30.92
2022-12-01T17:48:28.723Z,35.80
2022-12-01T17:50:55.441Z,32.22
2022-12-01T17:53:21.805Z,36.42
2022-12-01T17:55:48.230Z,39.28
2022-12-01T17:58:14.661Z,32.05
2022-12-01T18:00:41.155Z,36.47
2022-12-01T18:03:08.012Z,35.35
2022-12-01T18:05:34.551Z,38.10
2022-12-01T18:08:01.161Z,34.03
2022-12-01T18:10:27.615Z,33.55
2022-12-01T18:12:54.001Z,34.57
2022-12-01T18:15:20.391Z,31.48
2022-12-01T18:17:46.791Z,30.67
2022-12-01T18:20:13.597Z,32.17
2022-12-01T18:22:40.000Z,30.13
2022-12-01T18:25:06.668Z,38.43
2022-12-01T18:27:33.081Z,34.50
2022-12-01T18:29:59.515Z,33.55
2022-12-01T18:32:25.922Z,36.72
2022-12-01T18:34:52.619Z,35.53
2022-12-01T18:37:19.396Z,33.63
2022-12-01T18:39:46.109Z,35.42
2022-12-01T18:42:12.599Z,37.38
2022-12-01T18:44:39.137Z,33.67
2022-12-01T18:47:06.534Z,37.35
2022-12-01T18:49:33.052Z,34.93
2022-12-01T18:52:00.267Z,35.60
2022-12-01T18:54:27.044Z,35.78
2022-12-01T18:56:55.011Z,38.72
2022-12-01T18:59:21.388Z,37.92
2022-12-01T19:01:48.527Z,33.17
2022-12-01T19:04:16.416Z,33.78
2022-12-01T19:06:44.488Z,38.08
2022-12-01T19:09:12.895Z,36.38
2022-12-01T19:11:40.579Z,41.90
2022-12-01T19:14:08.387Z,36.50
2022-12-01T19:16:35.016Z,41.08
2022-12-01T19:19:01.664Z,45.72
2022-12-01T19:21:28.135Z,37.95
2022-12-01T19:23:54.634Z,44.13
2022-12-01T19:26:22.822Z,36.20
2022-12-01T19:28:49.755Z,45.00
2022-12-01T19:31:23.458Z,37.85
2022-12-01T19:33:50.757Z,49.50
2022-12-01T19:36:19.700Z,41.58
2022-12-01T19:38:47.043Z,50.37
2022-12-01T19:41:14.593Z,44.15
2022-12-01T19:43:44.660Z,41.90
2022-12-01T19:46:20.185Z,43.15
2022-12-01T19:48:47.834Z,43.30
2022-12-01T19:51:19.553Z,46.20
2022-12-01T19:53:46.075Z,39.35
2022-12-01T19:56:12.658Z,41.70
2022-12-01T19:58:39.399Z,47.58
2022-12-01T20:01:11.915Z,45.63
2022-12-01T20:03:40.525Z,41.83
2022-12-01T20:06:10.168Z,45.67
2022-12-01T20:08:36.835Z,43.33
2022-12-01T20:11:04.839Z,44.67
2022-12-01T20:13:35.706Z,41.70
2022-12-01T20:16:06.774Z,39.50
2022-12-01T20:18:33.585Z,47.38
2022-12-01T20:21:05.512Z,41.97
2022-12-01T20:23:32.317Z,43.78
2022-12-01T20:26:04.726Z,48.28
2022-12-01T20:28:32.160Z,59.60
2022-12-01T20:30:59.509Z,50.05
2022-12-01T20:33:26.819Z,53.28
2022-12-01T20:35:53.297Z,57.15
2022-12-01T20:38:25.796Z,50.08
2022-12-01T20:40:53.835Z,53.50
2022-12-01T20:43:20.268Z,60.08
2022-12-01T20:45:46.822Z,52.92
2022-12-01T20:48:13.742Z,46.20
2022-12-01T20:50:40.441Z,52.85
2022-12-01T20:53:06.865Z,46.13
2022-12-01T20:55:35.648Z,70.45
2022-12-01T20:58:02.840Z,70.43
2022-12-01T21:00:29.745Z,52.08
2022-12-01T21:02:56.991Z,53.17
2022-12-01T21:05:24.935Z,56.33
2022-12-01T21:07:51.441Z,45.20
2022-12-01T21:10:20.187Z,42.40
2022-12-01T21:13:10.249Z,43.72
2022-12-01T21:15:46.403Z,42.60
2022-12-01T21:18:22.637Z,46.67
2022-12-01T21:20:55.146Z,40.92
2022-12-01T21:23:21.536Z,42.95
2022-12-01T21:25:49.185Z,41.47
2022-12-01T21:28:24.322Z,46.05
2022-12-01T21:31:10.340Z,48.47
2022-12-01T21:33:37.313Z,41.10
2022-12-01T21:36:15.857Z,41.78
2022-12-01T21:38:46.516Z,43.20
2022-12-01T21:41:29.026Z,39.70
2022-12-01T21:44:19.767Z,42.43
2022-12-01T21:46:47.754Z,42.72
2022-12-01T21:49:28.236Z,41.65
2022-12-01T21:51:55.243Z,41.08
2022-12-01T21:54:22.857Z,37.72
2022-12-01T21:56:52.079Z,44.90
2022-12-01T21:59:23.400Z,42.33
2022-12-01T22:01:57.413Z,39.08
2022-12-01T22:04:29.003Z,41.13
2022-12-01T22:06:57.670Z,42.20
2022-12-01T22:09:36.498Z,42.20
2022-12-01T22:12:27.675Z,43.95
2022-12-01T22:14:59.961Z,41.22
2022-12-01T22:17:27.767Z,49.22
2022-12-01T22:20:01.324Z,42.58
2022-12-01T22:22:29.343Z,48.17
2022-12-01T22:25:15.786Z,48.25
2022-12-01T22:27:43.897Z,45.33
2022-12-01T22:30:10.213Z,46.80
2022-12-01T22:32:37.227Z,53.40
2022-12-01T22:35:20.503Z,41.10
2022-12-01T22:38:11.284Z,42.50
2022-12-01T22:40:45.455Z,50.88
2022-12-01T22:43:17.695Z,47.30
2022-12-01T22:45:49.124Z,52.42
2022-12-01T22:48:40.029Z,48.97
2022-12-01T22:51:12.445Z,48.67
2022-12-01T22:53:39.755Z,52.78
2022-12-01T22:56:29.162Z,50.47
2022-12-01T22:58:56.243Z,53.00
2022-12-01T23:01:30.094Z,44.80
2022-12-01T23:04:15.345Z,56.65
2022-12-01T23:06:54.290Z,47.78
2022-12-01T23:09:23.083Z,54.03
2022-12-01T23:11:54.920Z,51.03
2022-12-01T23:14:23.439Z,49.03
2022-12-01T23:17:04.252Z,51.53
2022-12-01T23:19:32.507Z,60.53
2022-12-01T23:21:58.930Z,56.20
2022-12-01T23:24:27.681Z,47.47
2022-12-01T23:26:56.226Z,54.97
2022-12-01T23:29:22.769Z,53.50
2022-12-01T23:31:50.448Z,56.10
2022-12-01T23:34:18.003Z,56.03
2022-12-01T23:36:46.328Z,55.10
2022-12-01T23:39:15.409Z,61.70
2022-12-01T23:41:47.587Z,56.17
2022-12-01T23:44:32.857Z,61.90
2022-12-01T23:46:59.477Z,54.85
2022-12-01T23:49:30.264Z,61.97
2022-12-01T23:51:59.153Z,52.90
2022-12-01T23:54:29.708Z,62.53
2022-12-01T23:57:01.607Z,55.03
2022-12-01T23:59:29.961Z,54.97
